createdAt,value
2022-11-29T04:02:57.345Z,18.35
2022-11-29T04:05:44.781Z,21.47
2022-11-29T04:08:49.272Z,20.10
2022-11-29T04:11:59.712Z,19.95
2022-11-29T04:14:51.626Z,18.77
2022-11-29T04:18:06.229Z,19.10
2022-11-29T04:20:57.642Z,19.20
2022-11-29T04:23:59.724Z,19.90
2022-11-29T04:27:13.550Z,19.23
2022-11-29T04:30:04.867Z,20.67
2022-11-29T04:33:00.093Z,27.40
2022-11-29T04:35:38.826Z,25.80
2022-11-29T04:38:38.982Z,25.00
2022-11-29T04:41:22.423Z,19.97
2022-11-29T04:44:01.161Z,22.13
2022-11-29T04:46:48.303Z,21.70
2022-11-29T04:49:36.699Z,22.40
2022-11-29T04:52:23.737Z,18.40
2022-11-29T04:55:00.884Z,21.53
2022-11-29T04:57:36.880Z,19.00
2022-11-29T05:00:09.877Z,21.37
2022-11-29T05:02:49.316Z,18.57
2022-11-29T05:05:28.084Z,21.10
2022-11-29T05:08:11.004Z,19.10
2022-11-29T05:10:45.560Z,17.77
2022-11-29T05:13:19.869Z,20.70
2022-11-29T05:16:06.607Z,20.37
2022-11-29T05:18:58.063Z,21.48
2022-11-29T05:21:34.218Z,22.80
2022-11-29T05:24:15.789Z,25.67
2022-11-29T05:26:53.256Z,19.53
2022-11-29T05:29:27.054Z,18.80
2022-11-29T05:32:04.602Z,22.30
2022-11-29T05:34:47.392Z,19.83
2022-11-29T05:37:26.257Z,18.98
2022-11-29T05:40:16.772Z,26.17
2022-11-29T05:43:10.830Z,19.58
2022-11-29T05:45:47.848Z,20.17
2022-11-29T05:48:25.512Z,18.50
2022-11-29T05:51:06.069Z,20.70
2022-11-29T05:53:42.594Z,19.17
2022-11-29T05:56:19.083Z,21.02
2022-11-29T05:58:52.199Z,19.52
2022-11-29T06:01:23.866Z,18.00
2022-11-29T06:04:02.909Z,18.47
2022-11-29T06:06:39.560Z,21.58
2022-11-29T06:09:16.085Z,32.47
2022-11-29T06:11:48.178Z,27.70
2022-11-29T06:14:36.901Z,36.22
2022-11-29T06:17:26.341Z,31.37
2022-11-29T06:20:04.210Z,21.00
2022-11-29T06:22:47.422Z,26.30
2022-11-29T06:25:30.561Z,18.83
2022-11-29T06:28:24.024Z,15.67
2022-11-29T06:31:02.032Z,16.40
2022-11-29T06:33:37.722Z,15.67
2022-11-29T06:36:15.022Z,16.77
2022-11-29T06:38:43.485Z,16.07
2022-11-29T06:41:18.197Z,14.63
2022-11-29T06:43:48.756Z,16.33
2022-11-29T06:46:27.817Z,23.03
2022-11-29T06:49:03.697Z,18.83
2022-11-29T06:51:38.741Z,15.75
2022-11-29T06:54:17.197Z,16.17
2022-11-29T06:56:52.379Z,18.13
2022-11-29T06:59:36.571Z,18.17
2022-11-29T07:02:18.545Z,18.67
2022-11-29T07:05:01.839Z,19.88
2022-11-29T07:07:30.265Z,20.08
2022-11-29T07:09:59.584Z,27.47
2022-11-29T07:12:28.027Z,29.23
2022-11-29T07:14:58.674Z,25.27
2022-11-29T07:17:31.881Z,58.42
2022-11-29T07:20:18.303Z,40.80
2022-11-29T07:22:57.130Z,48.10
2022-11-29T07:25:33.272Z,49.53
2022-11-29T07:28:12.635Z,48.63
2022-11-29T07:30:49.309Z,57.05
2022-11-29T07:33:23.437Z,71.93
2022-11-29T07:36:00.733Z,93.67
2022-11-29T07:38:46.817Z,63.63
2022-11-29T07:41:19.608Z,33.20
2022-11-29T07:43:57.365Z,33.60
2022-11-29T07:46:28.454Z,47.73
2022-11-29T07:48:56.355Z,44.43
2022-11-29T07:51:24.232Z,41.45
2022-11-29T07:53:52.098Z,33.55
2022-11-29T07:56:19.949Z,21.83
2022-11-29T07:58:47.963Z,29.80
2022-11-29T08:01:15.857Z,75.80
2022-11-29T08:03:45.179Z,23.95
2022-11-29T08:06:13.127Z,40.20
2022-11-29T08:08:44.213Z,17.85
2022-11-29T08:11:13.636Z,17.50
2022-11-29T08:13:41.518Z,18.63
2022-11-29T08:16:09.804Z,13.68
2022-11-29T08:18:37.827Z,14.77
2022-11-29T08:21:08.864Z,14.98
2022-11-29T08:23:36.765Z,15.77
2022-11-29T08:26:08.596Z,12.68
2022-11-29T08:28:36.425Z,15.50
2022-11-29T08:31:08.917Z,12.68
2022-11-29T08:33:44.572Z,13.20
2022-11-29T08:36:15.865Z,12.93
2022-11-29T08:38:44.057Z,15.02
2022-11-29T08:41:14.827Z,16.00
2022-11-29T08:43:43.369Z,15.45
2022-11-29T08:46:18.277Z,13.73
2022-11-29T08:48:47.097Z,15.40
2022-11-29T08:51:16.727Z,26.08
2022-11-29T08:53:44.593Z,23.77
2022-11-29T08:56:59.656Z,17.23
2022-11-29T08:59:02.472Z,25.80
2022-11-29T09:01:30.464Z,24.30
2022-11-29T09:04:03.492Z,20.55
2022-11-29T09:06:34.693Z,18.70
2022-11-29T09:09:02.678Z,16.30
2022-11-29T09:11:35.180Z,14.27
2022-11-29T09:14:06.237Z,16.38
2022-11-29T09:16:36.043Z,16.38
2022-11-29T09:19:04.365Z,14.80
2022-11-29T09:21:36.602Z,12.32
2022-11-29T09:24:07.902Z,13.02
2022-11-29T09:26:37.863Z,26.70
2022-11-29T09:29:07.660Z,13.48
2022-11-29T09:31:36.416Z,14.52
2022-11-29T09:34:04.532Z,12.35
2022-11-29T09:36:33.782Z,13.40
2022-11-29T09:39:03.606Z,12.55
2022-11-29T09:41:54.273Z,15.13
2022-11-29T09:44:35.477Z,13.30
2022-11-29T09:47:19.711Z,13.50
2022-11-29T09:49:59.442Z,13.73
2022-11-29T09:52:43.741Z,13.35
2022-11-29T09:55:29.637Z,15.45
2022-11-29T09:58:00.498Z,13.85
2022-11-29T10:00:30.385Z,13.30
2022-11-29T10:03:02.448Z,17.45
2022-11-29T10:05:36.396Z,15.70
2022-11-29T10:08:10.763Z,16.13
2022-11-29T10:10:44.158Z,15.68
2022-11-29T10:13:19.893Z,11.82
2022-11-29T10:15:54.025Z,13.50
2022-11-29T10:18:26.964Z,12.65
2022-11-29T10:20:58.595Z,13.15
2022-11-29T10:23:33.742Z,13.02
2022-11-29T10:26:01.735Z,16.17
2022-11-29T10:28:32.901Z,16.30
2022-11-29T10:31:13.952Z,12.57
2022-11-29T10:33:42.875Z,13.68
2022-11-29T10:36:21.533Z,16.30
2022-11-29T10:38:53.274Z,12.95
2022-11-29T10:41:23.703Z,15.52
2022-11-29T10:43:52.882Z,15.65
2022-11-29T10:46:29.076Z,15.13
2022-11-29T10:48:58.830Z,14.88
2022-11-29T10:51:26.890Z,18.60
2022-11-29T10:53:57.648Z,14.98
2022-11-29T10:56:29.538Z,15.27
2022-11-29T10:59:03.010Z,17.17
2022-11-29T11:01:32.369Z,15.32
2022-11-29T11:04:04.160Z,15.73
2022-11-29T11:06:44.789Z,11.95
2022-11-29T11:09:20.509Z,16.38
2022-11-29T11:11:52.966Z,14.80
2022-11-29T11:14:23.613Z,12.70
2022-11-29T11:16:51.879Z,14.63
2022-11-29T11:19:28.644Z,14.98
2022-11-29T11:21:59.602Z,12.13
2022-11-29T11:24:31.390Z,16.88
2022-11-29T11:27:00.185Z,16.35
2022-11-29T11:29:38.299Z,16.50
2022-11-29T11:32:08.743Z,17.33
2022-11-29T11:34:37.917Z,15.40
2022-11-29T11:37:21.878Z,18.52
2022-11-29T11:39:53.214Z,15.00
2022-11-29T11:42:40.480Z,16.55
2022-11-29T11:45:28.384Z,16.08
2022-11-29T11:47:58.608Z,21.83
2022-11-29T11:50:30.345Z,20.55
2022-11-29T11:53:00.823Z,17.08
2022-11-29T11:55:37.264Z,15.73
2022-11-29T11:58:16.602Z,16.13
2022-11-29T12:01:04.702Z,21.20
2022-11-29T12:03:44.801Z,22.38
2022-11-29T12:06:35.172Z,23.23
2022-11-29T12:09:10.742Z,20.00
2022-11-29T12:11:46.930Z,18.77
2022-11-29T12:14:25.070Z,17.20
2022-11-29T12:16:59.794Z,17.65
2022-11-29T12:19:35.326Z,16.02
2022-11-29T12:22:08.957Z,22.33
2022-11-29T12:24:42.350Z,19.73
2022-11-29T12:27:14.355Z,16.23
2022-11-29T12:29:42.395Z,16.33
2022-11-29T12:32:37.247Z,18.52
2022-11-29T12:35:34.848Z,15.57
2022-11-29T12:38:13.005Z,25.25
2022-11-29T12:40:48.227Z,23.00
2022-11-29T12:43:29.145Z,24.27
2022-11-29T12:46:04.897Z,27.33
2022-11-29T12:48:40.473Z,24.98
2022-11-29T12:51:14.915Z,21.30
2022-11-29T12:53:56.891Z,19.20
2022-11-29T12:56:28.293Z,16.88
2022-11-29T12:59:10.448Z,17.23
2022-11-29T13:01:57.748Z,15.55
2022-11-29T13:04:30.516Z,15.32
2022-11-29T13:07:05.796Z,12.88
2022-11-29T13:10:04.444Z,15.05
2022-11-29T13:12:38.719Z,13.50
2022-11-29T13:15:15.626Z,14.05
2022-11-29T13:17:53.181Z,17.02
2022-11-29T13:20:31.824Z,13.73
2022-11-29T13:23:05.705Z,16.02
2022-11-29T13:25:38.173Z,17.25
2022-11-29T13:28:08.674Z,17.42
2022-11-29T13:30:39.541Z,15.90
2022-11-29T13:33:17.029Z,13.15
2022-11-29T13:35:52.101Z,16.48
2022-11-29T13:38:25.714Z,15.27
2022-11-29T13:40:59.119Z,14.18
2022-11-29T13:43:36.141Z,12.52
2022-11-29T13:46:17.071Z,13.82
2022-11-29T13:48:50.698Z,13.93
2022-11-29T13:51:31.526Z,11.52
2022-11-29T13:54:01.852Z,15.48
2022-11-29T13:56:42.683Z,14.55
2022-11-29T13:59:18.372Z,16.63
2022-11-29T14:01:50.322Z,18.67
2022-11-29T14:04:31.155Z,15.55
2022-11-29T14:07:20.011Z,16.88
2022-11-29T14:09:58.201Z,15.30
2022-11-29T14:12:36.980Z,18.00
2022-11-29T14:15:17.623Z,23.20
2022-11-29T14:17:53.551Z,18.08
2022-11-29T14:20:58.986Z,18.83
2022-11-29T14:23:36.195Z,21.85
2022-11-29T14:26:32.561Z,20.05
2022-11-29T14:29:01.145Z,19.17
2022-11-29T14:31:51.395Z,24.65
2022-11-29T14:34:32.580Z,21.88
2022-11-29T14:37:07.811Z,21.60
2022-11-29T14:39:43.389Z,23.23
2022-11-29T14:42:16.925Z,21.00
2022-11-29T14:44:47.846Z,17.65
2022-11-29T14:47:23.970Z,14.18
2022-11-29T14:49:56.491Z,16.08
2022-11-29T14:52:29.351Z,13.93
2022-11-29T14:55:10.449Z,13.63
2022-11-29T14:57:53.951Z,12.55
2022-11-29T15:00:24.245Z,12.20
2022-11-29T15:02:57.768Z,15.30
2022-11-29T15:05:33.661Z,13.65
2022-11-29T15:08:10.371Z,11.88
2022-11-29T15:10:42.236Z,12.40
2022-11-29T15:13:14.924Z,13.57
2022-11-29T15:16:09.464Z,15.05
2022-11-29T15:19:05.945Z,15.63
2022-11-29T15:21:43.322Z,14.57
2022-11-29T15:24:13.208Z,12.30
2022-11-29T15:26:54.749Z,13.75
2022-11-29T15:29:22.592Z,15.57
2022-11-29T15:31:54.064Z,13.45
2022-11-29T15:34:33.183Z,11.27
2022-11-29T15:37:02.777Z,12.32
2022-11-29T15:39:33.823Z,11.60
2022-11-29T15:42:03.986Z,22.45
2022-11-29T15:44:33.597Z,18.73
2022-11-29T15:47:21.942Z,11.23
2022-11-29T15:49:50.116Z,21.33
2022-11-29T15:52:28.013Z,27.35
2022-11-29T15:55:00.193Z,35.22
2022-11-29T15:57:34.757Z,25.00
2022-11-29T16:00:05.288Z,21.45
2022-11-29T16:02:35.515Z,65.20
2022-11-29T16:05:10.978Z,49.47
2022-11-29T16:07:41.022Z,47.38
2022-11-29T16:10:15.664Z,42.22
2022-11-29T16:12:53.574Z,36.95
2022-11-29T16:15:31.971Z,27.45
2022-11-29T16:18:05.036Z,27.35
2022-11-29T16:20:33.147Z,22.20
2022-11-29T16:23:12.281Z,20.83
2022-11-29T16:25:57.111Z,18.30
2022-11-29T16:28:27.826Z,22.63
2022-11-29T16:30:55.783Z,23.65
2022-11-29T16:33:25.510Z,24.20
2022-11-29T16:36:04.850Z,22.30
2022-11-29T16:38:34.314Z,25.67
2022-11-29T16:41:05.754Z,21.98
2022-11-29T16:43:54.022Z,23.05
2022-11-29T16:46:43.320Z,26.45
2022-11-29T16:49:34.617Z,25.00
2022-11-29T16:52:03.389Z,19.00
2022-11-29T16:54:34.743Z,20.08
2022-11-29T16:57:06.075Z,18.55
2022-11-29T16:59:35.201Z,28.55
2022-11-29T17:02:03.127Z,24.90
2022-11-29T17:04:31.062Z,23.20
2022-11-29T17:06:58.986Z,22.73
2022-11-29T17:09:28.429Z,26.98
2022-11-29T17:11:59.767Z,23.10
2022-11-29T17:14:28.149Z,21.85
2022-11-29T17:16:56.568Z,23.33
2022-11-29T17:19:24.879Z,23.67
2022-11-29T17:21:53.498Z,24.75
2022-11-29T17:24:23.337Z,21.83
2022-11-29T17:26:51.916Z,24.02
2022-11-29T17:29:21.142Z,20.02
2022-11-29T17:31:50.402Z,21.13
2022-11-29T17:34:18.822Z,21.00
2022-11-29T17:36:47.483Z,23.13
2022-11-29T17:39:19.354Z,25.58
2022-11-29T17:41:47.361Z,25.23
2022-11-29T17:44:15.214Z,23.55
2022-11-29T17:46:44.510Z,24.77
2022-11-29T17:49:12.369Z,26.35
2022-11-29T17:51:56.999Z,26.00
2022-11-29T17:54:24.922Z,22.33
2022-11-29T17:56:53.191Z,26.42
2022-11-29T17:59:21.036Z,22.23
2022-11-29T18:01:50.331Z,68.30
2022-11-29T18:04:22.446Z,76.63
2022-11-29T18:06:50.668Z,93.65
2022-11-29T18:09:19.614Z,76.22
2022-11-29T18:11:50.342Z,47.30
2022-11-29T18:14:20.201Z,46.03
2022-11-29T18:16:48.246Z,36.80
2022-11-29T18:19:19.100Z,34.60
2022-11-29T18:21:47.622Z,31.20
2022-11-29T18:24:15.490Z,28.25
2022-11-29T18:26:43.597Z,30.63
2022-11-29T18:29:11.481Z,29.92
2022-11-29T18:31:41.785Z,31.40
2022-11-29T18:34:11.293Z,29.05
2022-11-29T18:36:43.408Z,26.70
2022-11-29T18:39:14.015Z,29.25
2022-11-29T18:41:43.495Z,25.95
2022-11-29T18:44:12.808Z,26.17
2022-11-29T18:46:42.889Z,26.05
2022-11-29T18:49:12.959Z,26.92
2022-11-29T18:51:44.621Z,23.13
2022-11-29T18:54:14.779Z,26.25
2022-11-29T18:56:43.948Z,25.13
2022-11-29T18:59:14.615Z,24.95
2022-11-29T19:01:44.994Z,27.88
2022-11-29T19:04:16.407Z,34.38
2022-11-29T19:06:45.950Z,39.80
2022-11-29T19:09:15.879Z,42.22
2022-11-29T19:11:44.049Z,37.38
2022-11-29T19:14:13.939Z,33.50
2022-11-29T19:16:43.896Z,28.00
2022-11-29T19:19:12.594Z,28.08
2022-11-29T19:21:40.955Z,27.10
2022-11-29T19:24:17.663Z,27.38
2022-11-29T19:26:47.677Z,31.70
2022-11-29T19:29:17.143Z,45.83
2022-11-29T19:31:46.069Z,29.33
2022-11-29T19:34:14.039Z,29.90
2022-11-29T19:36:44.135Z,29.00
2022-11-29T19:39:16.478Z,23.75
2022-11-29T19:41:46.464Z,29.23
2022-11-29T19:44:14.578Z,29.17
2022-11-29T19:46:45.538Z,32.05
2022-11-29T19:49:13.830Z,28.27
2022-11-29T19:51:42.071Z,29.60
2022-11-29T19:54:11.720Z,26.33
2022-11-29T19:56:41.155Z,31.75
2022-11-29T19:59:09.931Z,31.23
2022-11-29T20:01:41.214Z,34.58
2022-11-29T20:04:11.400Z,35.70
2022-11-29T20:06:39.556Z,36.22
2022-11-29T20:09:07.496Z,36.78
2022-11-29T20:11:35.703Z,32.97
2022-11-29T20:14:06.826Z,31.67
2022-11-29T20:16:35.144Z,35.15
2022-11-29T20:19:03.032Z,28.88
2022-11-29T20:21:32.640Z,30.13
2022-11-29T20:24:03.330Z,41.00
2022-11-29T20:26:33.123Z,31.50
2022-11-29T20:29:02.698Z,32.03
2022-11-29T20:31:33.890Z,32.30
2022-11-29T20:34:02.254Z,32.63
2022-11-29T20:36:43.812Z,31.38
2022-11-29T20:39:28.534Z,32.20
2022-11-29T20:42:18.662Z,28.08
2022-11-29T20:44:52.865Z,31.20
2022-11-29T20:47:24.413Z,33.30
2022-11-29T20:49:52.831Z,32.35
2022-11-29T20:52:34.186Z,30.77
2022-11-29T20:55:02.012Z,32.33
2022-11-29T20:57:29.972Z,30.60
2022-11-29T20:59:57.894Z,32.65
2022-11-29T21:02:27.170Z,29.65
2022-11-29T21:04:55.053Z,30.27
2022-11-29T21:07:22.939Z,34.88
2022-11-29T21:09:50.960Z,32.20
2022-11-29T21:12:20.480Z,29.75
2022-11-29T21:14:48.995Z,32.80
2022-11-29T21:17:17.360Z,30.77
2022-11-29T21:19:47.188Z,28.15
2022-11-29T21:22:22.801Z,30.42
2022-11-29T21:24:57.853Z,29.15
2022-11-29T21:27:30.854Z,32.70
2022-11-29T21:29:59.359Z,33.40
2022-11-29T21:32:28.620Z,29.00
2022-11-29T21:34:57.875Z,37.75
2022-11-29T21:37:28.492Z,36.15
2022-11-29T21:39:57.156Z,35.00
2022-11-29T21:42:25.069Z,36.45
2022-11-29T21:44:53.128Z,38.40
2022-11-29T21:47:21.415Z,34.72
2022-11-29T21:49:51.426Z,30.50
2022-11-29T21:52:22.779Z,38.03
2022-11-29T21:54:51.233Z,35.83
2022-11-29T21:57:20.132Z,34.17
2022-11-29T21:59:47.992Z,40.75
2022-11-29T22:02:17.125Z,33.70
2022-11-29T22:04:45.459Z,35.20
2022-11-29T22:07:15.120Z,38.13
2022-11-29T22:09:44.397Z,38.17
2022-11-29T22:12:32.461Z,30.45
2022-11-29T22:15:00.250Z,32.42
2022-11-29T22:17:28.075Z,32.88
2022-11-29T22:19:56.080Z,67.57
2022-11-29T22:22:27.184Z,93.72
2022-11-29T22:24:57.375Z,51.55
2022-11-29T22:27:25.226Z,50.28
2022-11-29T22:29:53.072Z,41.53
2022-11-29T22:32:21.188Z,36.78
2022-11-29T22:34:49.204Z,49.38
2022-11-29T22:37:17.166Z,41.45
2022-11-29T22:39:45.123Z,40.58
2022-11-29T22:42:14.323Z,37.42
2022-11-29T22:44:42.164Z,30.92
2022-11-29T22:47:10.098Z,34.92
2022-11-29T22:49:38.238Z,37.03
2022-11-29T22:52:06.342Z,40.22
2022-11-29T22:54:34.184Z,38.92
2022-11-29T22:57:02.019Z,36.17
2022-11-29T22:59:31.237Z,38.17
